Terminal Aerodrome Forecast
Issued by NWS Sioux Falls, SD

Home | Current Version | Previous Version | Text Only | Print | Product List | Glossary Off
Versions: 1 2 3 4 5 6 7 8 9 10 11 12 13 14 15 16 17 18 19 20 21 22 23 24 25 26 27 28 29 30 31 32

827
FTUS43 KFSD 221050 AAB
TAFSUX
TAF AMD
KSUX 221050Z 2211/2306 01016G24KT 3SM -SN OVC008
     FM221500 36026G34KT 1/2SM SN BLSN OVC010
     FM221800 35025G33KT 1SM -SN BLSN OVC010
     FM230000 34020G32KT 2SM BLSN OVC020
     FM230300 33015G25KT P6SM BKN020=

USA.gov is the U.S. government's official web portal to all federal, state and local government web resources and services.